createdAt,value
2015-09-26T00:00:10.221Z,-0.54
2015-09-26T00:00:22.611Z,-0.56
2015-09-26T00:00:35.002Z,-0.45
2015-09-26T00:00:47.393Z,-0.51
2015-09-26T00:00:59.799Z,-0.46
2015-09-26T00:01:11.488Z,-0.49
2015-09-26T00:01:23.879Z,-0.61
2015-09-26T00:01:36.270Z,-0.49
2015-09-26T00:01:48.676Z,-0.49
2015-09-26T00:02:01.098Z,-0.54
2015-09-26T00:02:13.523Z,-0.55
2015-09-26T00:02:25.960Z,-0.58
2015-09-26T00:02:38.351Z,-0.66
2015-09-26T00:02:50.741Z,-0.64
2015-09-26T00:03:03.132Z,-0.52
2015-09-26T00:03:15.526Z,-0.61
2015-09-26T00:03:27.932Z,-0.51
2015-09-26T00:03:40.322Z,-0.58
2015-09-26T00:03:52.729Z,-0.58
2015-09-26T00:04:05.119Z,-0.49
2015-09-26T00:04:17.559Z,-0.54
2015-09-26T00:04:29.996Z,-0.55
2015-09-26T00:04:41.668Z,-0.59
2015-09-26T00:04:54.074Z,-0.54
2015-09-26T00:05:06.465Z,-0.49
2015-09-26T00:05:18.844Z,-0.58
2015-09-26T00:05:31.250Z,-0.59
2015-09-26T00:05:43.657Z,-0.56
2015-09-26T00:05:56.047Z,-0.54
2015-09-26T00:06:08.453Z,-0.59
2015-09-26T00:06:20.893Z,-0.59
2015-09-26T00:06:33.315Z,-0.55
2015-09-26T00:06:45.737Z,-0.59
2015-09-26T00:06:58.159Z,-0.59
2015-09-26T00:07:10.549Z,-0.56
2015-09-26T00:07:22.957Z,-0.59
2015-09-26T00:07:35.348Z,-0.56
2015-09-26T00:07:47.739Z,-0.61
2015-09-26T00:08:00.145Z,-0.58
2015-09-26T00:08:12.551Z,-0.66
2015-09-26T00:08:24.946Z,-0.59
2015-09-26T00:08:37.368Z,-0.59
2015-09-26T00:08:49.774Z,-0.62
2015-09-26T00:09:02.196Z,-0.61
2015-09-26T00:09:14.633Z,-0.58
2015-09-26T00:09:27.026Z,-0.59
2015-09-26T00:09:39.417Z,-0.58
2015-09-26T00:09:51.807Z,-0.66
2015-09-26T00:10:04.198Z,-0.66
2015-09-26T00:10:16.591Z,-0.56
2015-09-26T00:10:28.982Z,-0.59
2015-09-26T00:10:41.388Z,-0.61
2015-09-26T00:10:53.810Z,-0.58
2015-09-26T00:11:06.248Z,-0.61
2015-09-26T00:11:18.657Z,-0.56
2015-09-26T00:11:31.063Z,-0.61
2015-09-26T00:11:43.454Z,-0.61
2015-09-26T00:11:55.844Z,-0.56
2015-09-26T00:12:08.235Z,-0.59
2015-09-26T00:12:20.628Z,-0.56
2015-09-26T00:12:33.018Z,-0.59
2015-09-26T00:12:45.425Z,-0.59
2015-09-26T00:12:57.846Z,-0.61
2015-09-26T00:13:10.268Z,-0.59
2015-09-26T00:13:22.709Z,-0.58
2015-09-26T00:13:35.131Z,-0.61
2015-09-26T00:13:47.537Z,-0.59
2015-09-26T00:13:59.943Z,-0.61
2015-09-26T00:14:12.349Z,-0.61
2015-09-26T00:14:24.806Z,-0.62
2015-09-26T00:14:37.196Z,-0.62
2015-09-26T00:14:49.587Z,-0.61
2015-09-26T00:15:01.977Z,-0.67
2015-09-26T00:15:14.384Z,-0.61
2015-09-26T00:15:26.793Z,-0.66
2015-09-26T00:15:39.215Z,-0.66
2015-09-26T00:15:51.621Z,-0.58
2015-09-26T00:16:04.012Z,-0.66
2015-09-26T00:16:16.402Z,-0.61
2015-09-26T00:16:28.795Z,-0.64
2015-09-26T00:16:41.186Z,-0.58
2015-09-26T00:16:53.576Z,-0.62
2015-09-26T00:17:05.811Z,-0.59
2015-09-26T00:17:18.217Z,-0.62
2015-09-26T00:17:30.626Z,-0.59
2015-09-26T00:17:43.048Z,-0.58
2015-09-26T00:17:55.485Z,-0.62
2015-09-26T00:18:07.907Z,-0.66
2015-09-26T00:18:20.298Z,-0.66
2015-09-26T00:18:32.692Z,-0.66
2015-09-26T00:18:45.098Z,-0.61
2015-09-26T00:18:57.488Z,-0.59
2015-09-26T00:19:09.879Z,-0.66
2015-09-26T00:19:21.569Z,-0.64
2015-09-26T00:19:33.959Z,-0.62
2015-09-26T00:19:46.381Z,-0.58
2015-09-26T00:19:58.803Z,-0.61
2015-09-26T00:20:11.225Z,-0.59
2015-09-26T00:20:23.618Z,-0.62
2015-09-26T00:20:36.009Z,-0.61
2015-09-26T00:20:48.415Z,-0.56
2015-09-26T00:21:00.806Z,-0.66
2015-09-26T00:21:13.197Z,-0.64
2015-09-26T00:21:25.590Z,-0.64
2015-09-26T00:21:37.996Z,-0.56
2015-09-26T00:21:50.262Z,-0.58
2015-09-26T00:22:02.684Z,-0.67
2015-09-26T00:22:15.106Z,-0.66
2015-09-26T00:22:27.498Z,-0.61
2015-09-26T00:22:39.889Z,-0.67
2015-09-26T00:22:52.280Z,-0.58
2015-09-26T00:23:04.670Z,-0.64
2015-09-26T00:23:17.077Z,-0.64
2015-09-26T00:23:29.470Z,-0.58
2015-09-26T00:23:41.876Z,-0.61
2015-09-26T00:23:53.564Z,-0.64
2015-09-26T00:24:05.986Z,-0.59
2015-09-26T00:24:18.423Z,-0.61
2015-09-26T00:24:30.848Z,-0.62
2015-09-26T00:24:43.254Z,-0.66
2015-09-26T00:24:54.926Z,-0.67
2015-09-26T00:25:07.333Z,-0.67
2015-09-26T00:25:19.723Z,-0.66
2015-09-26T00:25:32.117Z,-0.62
2015-09-26T00:25:44.507Z,-0.64
2015-09-26T00:25:56.914Z,-0.7
2015-09-26T00:26:09.320Z,-0.64
2015-09-26T00:26:21.726Z,-0.66
2015-09-26T00:26:34.166Z,-0.62
2015-09-26T00:26:46.588Z,-0.64
2015-09-26T00:26:58.978Z,-0.61
2015-09-26T00:27:11.369Z,-0.61
2015-09-26T00:27:23.775Z,-0.64
2015-09-26T00:27:36.184Z,-0.58
2015-09-26T00:27:48.575Z,-0.61
2015-09-26T00:28:00.981Z,-0.66
2015-09-26T00:28:13.372Z,-0.66
2015-09-26T00:28:25.762Z,-0.62
2015-09-26T00:28:38.187Z,-0.59
2015-09-26T00:28:50.609Z,-0.58
2015-09-26T00:29:03.047Z,-0.64
2015-09-26T00:29:15.469Z,-0.61
2015-09-26T00:29:27.859Z,-0.61
2015-09-26T00:29:40.253Z,-0.61
2015-09-26T00:29:52.643Z,-0.61
2015-09-26T00:30:05.034Z,-0.67
2015-09-26T00:30:17.461Z,-0.64
2015-09-26T00:30:29.851Z,-0.61
2015-09-26T00:30:41.979Z,-0.62
2015-09-26T00:30:54.089Z,-0.64
2015-09-26T00:31:06.526Z,-0.62
2015-09-26T00:31:18.651Z,-0.62
2015-09-26T00:31:30.917Z,-0.59
2015-09-26T00:31:43.013Z,-0.59
2015-09-26T00:31:55.419Z,-0.59
2015-09-26T00:32:07.810Z,-0.58
2015-09-26T00:32:20.221Z,-0.58
2015-09-26T00:32:32.627Z,-0.52
2015-09-26T00:32:45.047Z,-0.59
2015-09-26T00:32:57.500Z,-0.62
2015-09-26T00:33:09.922Z,-0.54
2015-09-26T00:33:22.344Z,-0.54
2015-09-26T00:33:34.766Z,-0.56
2015-09-26T00:33:47.003Z,-0.49
2015-09-26T00:33:59.394Z,-0.52
2015-09-26T00:34:11.784Z,-0.64
2015-09-26T00:34:24.175Z,-0.58
2015-09-26T00:34:36.583Z,-0.61
2015-09-26T00:34:48.974Z,-0.62
2015-09-26T00:35:01.380Z,-0.49
2015-09-26T00:35:13.802Z,-0.46
2015-09-26T00:35:26.224Z,-0.59
2015-09-26T00:35:38.634Z,-0.51
2015-09-26T00:35:51.025Z,-0.43
2015-09-26T00:36:03.431Z,-0.46
2015-09-26T00:36:15.837Z,-0.45
2015-09-26T00:36:28.228Z,-0.43
2015-09-26T00:36:40.620Z,-0.49
2015-09-26T00:36:53.027Z,-0.46
2015-09-26T00:37:05.433Z,-0.41
2015-09-26T00:37:17.839Z,-0.37
2015-09-26T00:37:30.277Z,-0.52
2015-09-26T00:37:42.669Z,-0.45
2015-09-26T00:37:55.060Z,-0.37
2015-09-26T00:38:07.451Z,-0.31
2015-09-26T00:38:19.841Z,-0.31
2015-09-26T00:38:32.247Z,-0.3
2015-09-26T00:38:44.641Z,-0.38
2015-09-26T00:38:57.047Z,-0.33
2015-09-26T00:39:09.438Z,-0.34
2015-09-26T00:39:21.860Z,-0.36
2015-09-26T00:39:34.282Z,-0.27
2015-09-26T00:39:46.707Z,-0.31
2015-09-26T00:39:59.144Z,-0.4
2015-09-26T00:40:11.519Z,-0.37
2015-09-26T00:40:23.925Z,-0.27
2015-09-26T00:40:36.316Z,-0.34
2015-09-26T00:40:48.725Z,-0.41
2015-09-26T00:41:01.116Z,-0.4
2015-09-26T00:41:13.506Z,-0.37
2015-09-26T00:41:25.913Z,-0.3
2015-09-26T00:41:38.319Z,-0.27
2015-09-26T00:41:50.759Z,-0.31
2015-09-26T00:42:03.150Z,-0.31
2015-09-26T00:42:15.541Z,-0.27
2015-09-26T00:42:27.947Z,-0.25
2015-09-26T00:42:40.338Z,-0.36
2015-09-26T00:42:52.731Z,-0.28
2015-09-26T00:43:05.137Z,-0.34
2015-09-26T00:43:17.544Z,-0.36
2015-09-26T00:43:29.950Z,-0.34
2015-09-26T00:43:42.357Z,-0.33
2015-09-26T00:43:54.795Z,-0.37
2015-09-26T00:44:07.217Z,-0.23
2015-09-26T00:44:19.638Z,-0.33
2015-09-26T00:44:32.029Z,-0.2
2015-09-26T00:44:44.424Z,-0.25
2015-09-26T00:44:56.830Z,-0.34
2015-09-26T00:45:09.221Z,-0.23
2015-09-26T00:45:21.611Z,-0.22
2015-09-26T00:45:34.002Z,-0.19
2015-09-26T00:45:46.410Z,-0.28
2015-09-26T00:45:58.848Z,-0.28
2015-09-26T00:46:11.269Z,-0.27
2015-09-26T00:46:23.660Z,-0.25
2015-09-26T00:46:35.332Z,-0.3
2015-09-26T00:46:47.022Z,-0.23
2015-09-26T00:46:58.710Z,-0.25
2015-09-26T00:47:11.116Z,-0.22
2015-09-26T00:47:23.507Z,-0.16
2015-09-26T00:47:35.897Z,-0.28
2015-09-26T00:47:48.307Z,-0.31
2015-09-26T00:48:00.744Z,-0.25
2015-09-26T00:48:13.166Z,-0.22
2015-09-26T00:48:25.557Z,-0.19
2015-09-26T00:48:37.963Z,-0.16
2015-09-26T00:48:50.372Z,-0.3
2015-09-26T00:49:02.763Z,-0.22
2015-09-26T00:49:15.169Z,-0.18
2015-09-26T00:49:27.560Z,-0.27
2015-09-26T00:49:39.966Z,-0.2
2015-09-26T00:49:52.374Z,-0.25
2015-09-26T00:50:04.780Z,-0.25
2015-09-26T00:50:17.202Z,-0.19
2015-09-26T00:50:29.593Z,-0.23
2015-09-26T00:50:41.999Z,-0.19
2015-09-26T00:50:54.393Z,-0.19
2015-09-26T00:51:06.783Z,-0.28
2015-09-26T00:51:19.174Z,-0.19
2015-09-26T00:51:31.565Z,-0.19
2015-09-26T00:51:43.971Z,-0.22
2015-09-26T00:51:56.380Z,-0.23
2015-09-26T00:52:08.802Z,-0.18
2015-09-26T00:52:21.240Z,-0.16
2015-09-26T00:52:33.646Z,-0.18
2015-09-26T00:52:46.052Z,-0.15
2015-09-26T00:52:57.726Z,-0.18
2015-09-26T00:53:10.117Z,-0.19
2015-09-26T00:53:22.507Z,-0.22
2015-09-26T00:53:34.913Z,-0.13
2015-09-26T00:53:47.304Z,-0.15
2015-09-26T00:53:59.729Z,-0.15
2015-09-26T00:54:12.166Z,-0.15
2015-09-26T00:54:24.588Z,-0.13
2015-09-26T00:54:36.979Z,-0.2
2015-09-26T00:54:49.370Z,-0.18
2015-09-26T00:55:01.779Z,-0.2
2015-09-26T00:55:14.154Z,-0.16
2015-09-26T00:55:26.560Z,-0.13
2015-09-26T00:55:38.935Z,-0.15
2015-09-26T00:55:51.343Z,-0.12
2015-09-26T00:56:03.750Z,-0.12
2015-09-26T00:56:16.171Z,-0.16
2015-09-26T00:56:28.593Z,-0.22
2015-09-26T00:56:40.984Z,-0.13
2015-09-26T00:56:53.393Z,-0.13
2015-09-26T00:57:05.784Z,-0.16
2015-09-26T00:57:18.174Z,-0.13
2015-09-26T00:57:30.581Z,-0.13
2015-09-26T00:57:42.971Z,-0.05
2015-09-26T00:57:55.381Z,-0.07
2015-09-26T00:58:07.787Z,-0.01
2015-09-26T00:58:20.224Z,-0.09
2015-09-26T00:58:32.646Z,-0.12
2015-09-26T00:58:45.052Z,-0.04
2015-09-26T00:58:57.446Z,-0.1
2015-09-26T00:59:09.837Z,-0.07
2015-09-26T00:59:22.071Z,-0.09
2015-09-26T00:59:34.462Z,-0.09
2015-09-26T00:59:46.165Z,-0.12
2015-09-26T00:59:58.573Z,-0.1
2015-09-26T01:00:10.964Z,-0.02
2015-09-26T01:00:23.370Z,-0.09
2015-09-26T01:00:35.792Z,-0.02
2015-09-26T01:00:48.229Z,-0.09
2015-09-26T01:01:00.623Z,-0.1
2015-09-26T01:01:13.014Z,-0.13
2015-09-26T01:01:25.404Z,0.01
2015-09-26T01:01:37.795Z,-0.09
2015-09-26T01:01:50.201Z,-0.13
2015-09-26T01:02:01.907Z,-0.04
2015-09-26T01:02:14.188Z,-0.09
2015-09-26T01:02:26.610Z,-0.09
2015-09-26T01:02:39.048Z,-0.12
2015-09-26T01:02:51.438Z,-0.1
2015-09-26T01:03:03.831Z,-0.09
2015-09-26T01:03:16.222Z,-0.07
2015-09-26T01:03:28.628Z,-0.12
2015-09-26T01:03:41.034Z,-0.09
2015-09-26T01:03:53.425Z,-0.12
2015-09-26T01:04:05.819Z,-0.09
2015-09-26T01:04:18.226Z,-0.1
2015-09-26T01:04:30.648Z,-0.09
2015-09-26T01:04:43.069Z,-0.09
2015-09-26T01:04:55.507Z,-0.1
2015-09-26T01:05:07.915Z,-0.09
2015-09-26T01:05:20.306Z,-0.09
2015-09-26T01:05:32.712Z,-0.09
2015-09-26T01:05:45.087Z,-0.12
2015-09-26T01:05:57.509Z,-0.16
2015-09-26T01:06:09.918Z,-0.22
2015-09-26T01:06:22.309Z,-0.2
2015-09-26T01:06:34.715Z,-0.04
2015-09-26T01:06:47.137Z,-0.12
2015-09-26T01:06:59.576Z,-0.19
2015-09-26T01:07:11.998Z,-0.19
2015-09-26T01:07:24.420Z,-0.16
2015-09-26T01:07:36.811Z,-0.13
2015-09-26T01:07:49.201Z,-0.07
2015-09-26T01:08:01.595Z,-0.2
2015-09-26T01:08:14.001Z,-0.22
2015-09-26T01:08:26.392Z,-0.04
2015-09-26T01:08:38.783Z,-0.25
2015-09-26T01:08:51.189Z,-0.15
2015-09-26T01:09:03.614Z,-0.16
2015-09-26T01:09:16.036Z,-0.12
2015-09-26T01:09:28.426Z,-0.18
2015-09-26T01:09:40.817Z,-0.18
2015-09-26T01:09:53.223Z,-0.16
2015-09-26T01:10:05.617Z,-0.22
2015-09-26T01:10:18.023Z,-0.16
2015-09-26T01:10:30.429Z,-0.15
2015-09-26T01:10:42.867Z,-0.18
2015-09-26T01:10:55.289Z,-0.07
2015-09-26T01:11:07.712Z,-0.22
2015-09-26T01:11:19.431Z,-0.1
2015-09-26T01:11:31.103Z,-0.15
2015-09-26T01:11:43.494Z,-0.18
2015-09-26T01:11:55.900Z,-0.09
2015-09-26T01:12:08.309Z,-0.22
2015-09-26T01:12:20.700Z,-0.04
2015-09-26T01:12:33.090Z,-0.15
2015-09-26T01:12:45.481Z,-0.22
2015-09-26T01:12:57.903Z,-0.12
2015-09-26T01:13:10.327Z,-0.1
2015-09-26T01:13:22.764Z,-0.22
2015-09-26T01:13:35.186Z,-0.1
2015-09-26T01:13:47.577Z,-0.16
2015-09-26T01:13:59.983Z,-0.13
2015-09-26T01:14:12.377Z,-0.1
2015-09-26T01:14:24.767Z,-0.16
2015-09-26T01:14:37.158Z,-0.2
2015-09-26T01:14:49.564Z,-0.16
2015-09-26T01:15:01.970Z,-0.2
2015-09-26T01:15:14.364Z,-0.19
2015-09-26T01:15:26.786Z,-0.12
2015-09-26T01:15:39.208Z,-0.07
2015-09-26T01:15:51.598Z,-0.09
2015-09-26T01:16:03.989Z,-0.1
2015-09-26T01:16:16.383Z,-0.07
2015-09-26T01:16:28.789Z,-0.22
2015-09-26T01:16:41.195Z,-0.2
2015-09-26T01:16:53.586Z,-0.18
2015-09-26T01:17:05.992Z,-0.15
2015-09-26T01:17:18.433Z,-0.13
2015-09-26T01:17:30.854Z,-0.2
2015-09-26T01:17:43.245Z,-0.1
2015-09-26T01:17:55.636Z,-0.16
2015-09-26T01:18:08.042Z,-0.1
2015-09-26T01:18:20.419Z,-0.18
2015-09-26T01:18:32.810Z,-0.16
2015-09-26T01:18:45.216Z,-0.16
2015-09-26T01:18:57.622Z,-0.12
2015-09-26T01:19:10.031Z,-0.13
2015-09-26T01:19:22.438Z,-0.13
2015-09-26T01:19:34.844Z,-0.16
2015-09-26T01:19:47.250Z,-0.16
2015-09-26T01:19:59.641Z,-0.09
2015-09-26T01:20:12.034Z,-0.16
2015-09-26T01:20:24.425Z,-0.19
2015-09-26T01:20:36.831Z,-0.16
2015-09-26T01:20:49.222Z,-0.19
2015-09-26T01:21:01.612Z,-0.15
2015-09-26T01:21:14.022Z,-0.16
2015-09-26T01:21:26.444Z,-0.22
2015-09-26T01:21:38.865Z,-0.12
2015-09-26T01:21:51.287Z,-0.2
2015-09-26T01:22:03.584Z,-0.13
2015-09-26T01:22:15.978Z,-0.15
2015-09-26T01:22:28.368Z,-0.2
2015-09-26T01:22:40.759Z,-0.09
2015-09-26T01:22:53.134Z,-0.07
2015-09-26T01:23:05.525Z,-0.2
2015-09-26T01:23:17.917Z,-0.1
2015-09-26T01:23:30.339Z,-0.1
2015-09-26T01:23:42.745Z,-0.13
2015-09-26T01:23:55.167Z,-0.16
2015-09-26T01:24:07.589Z,-0.16
2015-09-26T01:24:19.983Z,-0.07
2015-09-26T01:24:32.373Z,-0.13
2015-09-26T01:24:44.764Z,-0.15
2015-09-26T01:24:57.155Z,-0.09
2015-09-26T01:25:09.577Z,-0.12
2015-09-26T01:25:21.969Z,-0.04
2015-09-26T01:25:34.235Z,-0.07
2015-09-26T01:25:46.641Z,-0.07
2015-09-26T01:25:59.079Z,-0.16
2015-09-26T01:26:11.485Z,-0.12
2015-09-26T01:26:23.878Z,-0.16
2015-09-26T01:26:36.269Z,-0.12
2015-09-26T01:26:48.660Z,-0.15
2015-09-26T01:27:01.066Z,-0.02
2015-09-26T01:27:13.457Z,-0.18
2015-09-26T01:27:25.850Z,-0.2
2015-09-26T01:27:38.256Z,-0.18
2015-09-26T01:27:50.647Z,-0.05
2015-09-26T01:28:03.069Z,-0.12
2015-09-26T01:28:15.522Z,-0.19
2015-09-26T01:28:27.916Z,-0.1
2015-09-26T01:28:40.322Z,-0.13
2015-09-26T01:28:52.713Z,-0.15
2015-09-26T01:29:05.103Z,-0.1
2015-09-26T01:29:17.494Z,-0.07
2015-09-26T01:29:29.903Z,-0.12
2015-09-26T01:29:42.325Z,-0.09
2015-09-26T01:29:54.731Z,-0.2
2015-09-26T01:30:07.169Z,-0.15
2015-09-26T01:30:19.575Z,-0.2
2015-09-26T01:30:32.014Z,-0.15
2015-09-26T01:30:44.405Z,-0.1
2015-09-26T01:30:56.796Z,-0.12
2015-09-26T01:31:09.202Z,-0.09
2015-09-26T01:31:21.596Z,-0.18
2015-09-26T01:31:33.986Z,-0.1
2015-09-26T01:31:46.377Z,-0.16
2015-09-26T01:31:58.783Z,-0.1
2015-09-26T01:32:11.189Z,-0.12
2015-09-26T01:32:23.630Z,-0.18
2015-09-26T01:32:36.052Z,-0.15
2015-09-26T01:32:48.474Z,-0.1
2015-09-26T01:33:00.864Z,-0.18
2015-09-26T01:33:13.536Z,-0.1
2015-09-26T01:33:25.930Z,-0.18
2015-09-26T01:33:37.602Z,-0.07
2015-09-26T01:33:49.992Z,-0.16
2015-09-26T01:34:02.383Z,-0.13
2015-09-26T01:34:14.789Z,-0.12
2015-09-26T01:34:27.197Z,-0.19
2015-09-26T01:34:39.619Z,-0.12
2015-09-26T01:34:51.354Z,-0.13
2015-09-26T01:35:03.775Z,-0.2
2015-09-26T01:35:16.166Z,-0.12
2015-09-26T01:35:28.560Z,-0.16
2015-09-26T01:35:40.950Z,-0.13
2015-09-26T01:35:53.341Z,-0.07
2015-09-26T01:36:05.747Z,-0.1
2015-09-26T01:36:18.138Z,-0.09
2015-09-26T01:36:30.563Z,-0.16
2015-09-26T01:36:42.969Z,-0.09
2015-09-26T01:36:55.235Z,-0.1
2015-09-26T01:37:07.656Z,-0.07
2015-09-26T01:37:20.078Z,-0.13
2015-09-26T01:37:32.471Z,-0.15
2015-09-26T01:37:44.862Z,-0.16
2015-09-26T01:37:57.252Z,-0.09
2015-09-26T01:38:09.643Z,-0.12
2015-09-26T01:38:22.033Z,-0.1
2015-09-26T01:38:34.427Z,-0.13
2015-09-26T01:38:46.849Z,-0.07
2015-09-26T01:38:59.255Z,-0.1
2015-09-26T01:39:11.661Z,-0.13
2015-09-26T01:39:24.083Z,-0.1
2015-09-26T01:39:36.523Z,-0.1
2015-09-26T01:39:48.929Z,-0.1
2015-09-26T01:40:01.179Z,-0.04
2015-09-26T01:40:13.554Z,-0.1
2015-09-26T01:40:25.960Z,-0.07
2015-09-26T01:40:38.355Z,-0.15
2015-09-26T01:40:50.746Z,-0.13
2015-09-26T01:41:03.152Z,-0.12
2015-09-26T01:41:15.558Z,-0.19
2015-09-26T01:41:27.964Z,-0.12
2015-09-26T01:41:40.373Z,-0.16
2015-09-26T01:41:52.794Z,-0.1
2015-09-26T01:42:05.201Z,-0.13
2015-09-26T01:42:17.591Z,-0.15
2015-09-26T01:42:29.982Z,-0.16
2015-09-26T01:42:42.391Z,-0.1
2015-09-26T01:42:54.797Z,-0.13
2015-09-26T01:43:07.188Z,-0.2
2015-09-26T01:43:19.579Z,-0.1
2015-09-26T01:43:31.972Z,-0.13
2015-09-26T01:43:44.394Z,-0.15
2015-09-26T01:43:56.816Z,-0.19
2015-09-26T01:44:09.254Z,-0.22
2015-09-26T01:44:21.660Z,-0.1
2015-09-26T01:44:34.037Z,-0.22
2015-09-26T01:44:46.443Z,-0.22
2015-09-26T01:44:58.834Z,-0.09
2015-09-26T01:45:11.240Z,-0.19
2015-09-26T01:45:23.631Z,-0.12
2015-09-26T01:45:36.024Z,-0.12
2015-09-26T01:45:48.430Z,-0.1
2015-09-26T01:46:00.837Z,-0.07
2015-09-26T01:46:13.259Z,-0.04
2015-09-26T01:46:25.680Z,-0.12
2015-09-26T01:46:38.105Z,-0.13
2015-09-26T01:46:50.496Z,-0.1
2015-09-26T01:47:02.887Z,-0.2
2015-09-26T01:47:15.277Z,-0.22
2015-09-26T01:47:27.668Z,-0.16
2015-09-26T01:47:40.077Z,-0.12
2015-09-26T01:47:51.765Z,-0.16
2015-09-26T01:48:04.171Z,-0.1
2015-09-26T01:48:16.593Z,-0.09
2015-09-26T01:48:28.999Z,-0.2
2015-09-26T01:48:41.439Z,-0.15
2015-09-26T01:48:53.830Z,-0.15
2015-09-26T01:49:06.221Z,-0.07
2015-09-26T01:49:18.611Z,-0.2
2015-09-26T01:49:31.002Z,-0.16
2015-09-26T01:49:43.395Z,-0.19
2015-09-26T01:49:55.785Z,-0.04
2015-09-26T01:50:08.176Z,-0.19
2015-09-26T01:50:20.598Z,-0.1
2015-09-26T01:50:33.004Z,-0.18
2015-09-26T01:50:45.428Z,-0.18
2015-09-26T01:50:57.850Z,-0.22
2015-09-26T01:51:10.272Z,-0.23
2015-09-26T01:51:22.662Z,-0.25
2015-09-26T01:51:35.053Z,-0.25
2015-09-26T01:51:47.462Z,-0.19
2015-09-26T01:51:59.853Z,-0.22
2015-09-26T01:52:12.259Z,-0.23
2015-09-26T01:52:24.650Z,-0.25
2015-09-26T01:52:37.056Z,-0.31
2015-09-26T01:52:49.466Z,-0.31
2015-09-26T01:53:01.872Z,-0.33
2015-09-26T01:53:14.294Z,-0.31
2015-09-26T01:53:26.685Z,-0.31
2015-09-26T01:53:39.093Z,-0.27
2015-09-26T01:53:51.484Z,-0.34
2015-09-26T01:54:03.890Z,-0.28
2015-09-26T01:54:16.296Z,-0.31
2015-09-26T01:54:28.718Z,-0.37
2015-09-26T01:54:41.142Z,-0.34
2015-09-26T01:54:53.579Z,-0.37
2015-09-26T01:55:06.001Z,-0.31
2015-09-26T01:55:18.392Z,-0.34
2015-09-26T01:55:30.783Z,-0.4
2015-09-26T01:55:43.176Z,-0.38
2015-09-26T01:55:55.567Z,-0.41
2015-09-26T01:56:07.973Z,-0.37
2015-09-26T01:56:20.364Z,-0.31
2015-09-26T01:56:32.770Z,-0.4
2015-09-26T01:56:45.179Z,-0.4
2015-09-26T01:56:57.617Z,-0.37
2015-09-26T01:57:10.070Z,-0.36
2015-09-26T01:57:22.460Z,-0.37
2015-09-26T01:57:34.851Z,-0.31
2015-09-26T01:57:47.276Z,-0.43
2015-09-26T01:57:59.682Z,-0.37
2015-09-26T01:58:11.401Z,-0.38
2015-09-26T01:58:23.792Z,-0.33
2015-09-26T01:58:36.198Z,-0.38
2015-09-26T01:58:48.590Z,-0.36
2015-09-26T01:59:01.012Z,-0.38
2015-09-26T01:59:13.450Z,-0.45
2015-09-26T01:59:25.872Z,-0.4
2015-09-26T01:59:38.262Z,-0.34
2015-09-26T01:59:50.672Z,-0.4
2015-09-26T02:00:03.062Z,-0.33
2015-09-26T02:00:15.468Z,-0.28
2015-09-26T02:00:27.859Z,-0.37
2015-09-26T02:00:40.250Z,-0.36
2015-09-26T02:00:52.659Z,-0.41
2015-09-26T02:01:05.081Z,-0.33
2015-09-26T02:01:17.518Z,-0.48
2015-09-26T02:01:29.909Z,-0.37
2015-09-26T02:01:42.300Z,-0.52
2015-09-26T02:01:54.693Z,-0.48
2015-09-26T02:02:07.084Z,-0.38
2015-09-26T02:02:19.490Z,-0.37
2015-09-26T02:02:31.881Z,-0.49
2015-09-26T02:02:44.287Z,-0.41
2015-09-26T02:02:56.695Z,-0.4
2015-09-26T02:03:09.133Z,-0.46
2015-09-26T02:03:21.555Z,-0.4
2015-09-26T02:03:33.992Z,-0.43
2015-09-26T02:03:46.401Z,-0.46
2015-09-26T02:03:58.792Z,-0.4
2015-09-26T02:04:11.042Z,-0.4
2015-09-26T02:04:23.433Z,-0.46
2015-09-26T02:04:35.823Z,-0.33
2015-09-26T02:04:48.217Z,-0.37
2015-09-26T02:05:00.623Z,-0.4
2015-09-26T02:05:13.029Z,-0.4
2015-09-26T02:05:25.451Z,-0.41
2015-09-26T02:05:37.873Z,-0.38
2015-09-26T02:05:50.314Z,-0.37
2015-09-26T02:06:02.751Z,-0.34
2015-09-26T02:06:15.142Z,-0.3
2015-09-26T02:06:27.532Z,-0.41
2015-09-26T02:06:39.939Z,-0.31
2015-09-26T02:06:52.331Z,-0.37
2015-09-26T02:07:04.722Z,-0.27
2015-09-26T02:07:17.128Z,-0.28
2015-09-26T02:07:29.519Z,-0.37
2015-09-26T02:07:41.925Z,-0.37
2015-09-26T02:07:54.381Z,-0.33
2015-09-26T02:08:06.803Z,-0.43
2015-09-26T02:08:19.194Z,-0.4
2015-09-26T02:08:31.615Z,-0.36
2015-09-26T02:08:44.006Z,-0.38
2015-09-26T02:08:56.431Z,-0.4
2015-09-26T02:09:08.118Z,-0.38
2015-09-26T02:09:20.525Z,-0.43
2015-09-26T02:09:32.962Z,-0.36
2015-09-26T02:09:45.400Z,-0.33
2015-09-26T02:09:57.839Z,-0.36
2015-09-26T02:10:10.230Z,-0.4
2015-09-26T02:10:22.620Z,-0.4
2015-09-26T02:10:35.011Z,-0.46
2015-09-26T02:10:47.402Z,-0.46
2015-09-26T02:10:59.811Z,-0.45
2015-09-26T02:11:12.202Z,-0.43
2015-09-26T02:11:24.592Z,-0.49
2015-09-26T02:11:37.014Z,-0.46
2015-09-26T02:11:49.420Z,-0.46
2015-09-26T02:12:01.861Z,-0.61
2015-09-26T02:12:14.267Z,-0.61
2015-09-26T02:12:26.658Z,-0.59
2015-09-26T02:12:39.048Z,-0.52
2015-09-26T02:12:51.455Z,-0.48
2015-09-26T02:13:03.848Z,-0.43
2015-09-26T02:13:16.239Z,-0.62
2015-09-26T02:13:28.629Z,-0.46
2015-09-26T02:13:41.051Z,-0.46
2015-09-26T02:13:53.458Z,-0.59
2015-09-26T02:14:05.882Z,-0.61
2015-09-26T02:14:18.304Z,-0.59
2015-09-26T02:14:30.742Z,-0.62
2015-09-26T02:14:43.148Z,-0.43
2015-09-26T02:14:55.539Z,-0.62
2015-09-26T02:15:07.932Z,-0.61
2015-09-26T02:15:20.339Z,-0.58
2015-09-26T02:15:32.729Z,-0.64
2015-09-26T02:15:45.120Z,-0.59
2015-09-26T02:15:57.528Z,-0.66
2015-09-26T02:16:09.216Z,-0.51
2015-09-26T02:16:21.653Z,-0.62
2015-09-26T02:16:34.091Z,-0.52
2015-09-26T02:16:46.481Z,-0.52
2015-09-26T02:16:58.875Z,-0.54
2015-09-26T02:17:11.281Z,-0.48
2015-09-26T02:17:23.672Z,-0.59
2015-09-26T02:17:36.078Z,-0.59
2015-09-26T02:17:48.484Z,-0.46
2015-09-26T02:18:00.892Z,-0.45
2015-09-26T02:18:13.283Z,-0.55
2015-09-26T02:18:25.705Z,-0.45
2015-09-26T02:18:38.127Z,-0.52
2015-09-26T02:18:50.533Z,-0.45
2015-09-26T02:19:02.927Z,-0.43
2015-09-26T02:19:15.317Z,-0.52
2015-09-26T02:19:27.724Z,-0.45
2015-09-26T02:19:40.114Z,-0.45
2015-09-26T02:19:52.505Z,-0.49
2015-09-26T02:20:04.898Z,-0.48
2015-09-26T02:20:17.320Z,-0.45
2015-09-26T02:20:29.711Z,-0.45
2015-09-26T02:20:42.133Z,-0.43
2015-09-26T02:20:54.586Z,-0.49
2015-09-26T02:21:06.979Z,-0.37
2015-09-26T02:21:19.369Z,-0.43
2015-09-26T02:21:31.775Z,-0.51
2015-09-26T02:21:44.182Z,-0.48
2015-09-26T02:21:56.572Z,-0.38
2015-09-26T02:22:08.966Z,-0.45
2015-09-26T02:22:21.388Z,-0.43
2015-09-26T02:22:33.778Z,-0.37
2015-09-26T02:22:46.216Z,-0.33
2015-09-26T02:22:58.653Z,-0.43
2015-09-26T02:23:11.063Z,-0.36
2015-09-26T02:23:23.469Z,-0.38
2015-09-26T02:23:35.860Z,-0.33
2015-09-26T02:23:48.250Z,-0.3
2015-09-26T02:24:00.641Z,-0.34
2015-09-26T02:24:13.050Z,-0.31
2015-09-26T02:24:25.441Z,-0.46
2015-09-26T02:24:37.144Z,-0.31
2015-09-26T02:24:49.566Z,-0.34
2015-09-26T02:25:01.972Z,-0.46
2015-09-26T02:25:14.365Z,-0.3
2015-09-26T02:25:26.755Z,-0.36
2015-09-26T02:25:39.146Z,-0.37
2015-09-26T02:25:51.568Z,-0.4
2015-09-26T02:26:03.974Z,-0.37
2015-09-26T02:26:16.399Z,-0.36
2015-09-26T02:26:28.664Z,-0.41
2015-09-26T02:26:41.055Z,-0.41
2015-09-26T02:26:53.461Z,-0.43
2015-09-26T02:27:05.852Z,-0.46
2015-09-26T02:27:18.246Z,-0.48
2015-09-26T02:27:30.788Z,-0.51
2015-09-26T02:27:43.194Z,-0.51
2015-09-26T02:27:55.600Z,-0.46
2015-09-26T02:28:08.022Z,-0.55
2015-09-26T02:28:20.431Z,-0.45
2015-09-26T02:28:32.869Z,-0.4
2015-09-26T02:28:45.306Z,-0.46
2015-09-26T02:28:57.728Z,-0.46
2015-09-26T02:29:10.119Z,-0.4
2015-09-26T02:29:22.512Z,-0.46
2015-09-26T02:29:34.903Z,-0.46
2015-09-26T02:29:46.590Z,-0.43
2015-09-26T02:29:58.981Z,-0.48
2015-09-26T02:30:11.387Z,-0.46
2015-09-26T02:30:23.797Z,-0.45
2015-09-26T02:30:36.203Z,-0.46
2015-09-26T02:30:48.609Z,-0.48
2015-09-26T02:31:01.031Z,-0.41
2015-09-26T02:31:12.750Z,-0.48
2015-09-26T02:31:25.142Z,-0.43
2015-09-26T02:31:37.533Z,-0.52
2015-09-26T02:31:49.939Z,-0.43
2015-09-26T02:32:02.345Z,-0.37
2015-09-26T02:32:14.736Z,-0.52
2015-09-26T02:32:27.145Z,-0.48
2015-09-26T02:32:39.567Z,-0.49
2015-09-26T02:32:51.989Z,-0.4
2015-09-26T02:33:04.427Z,-0.37
2015-09-26T02:33:16.836Z,-0.4
2015-09-26T02:33:29.226Z,-0.37
2015-09-26T02:33:41.633Z,-0.4
2015-09-26T02:33:54.023Z,-0.41
2015-09-26T02:34:06.414Z,-0.31
2015-09-26T02:34:18.807Z,-0.36
2015-09-26T02:34:31.197Z,-0.37
2015-09-26T02:34:43.603Z,-0.34
2015-09-26T02:34:56.010Z,-0.34
2015-09-26T02:35:08.432Z,-0.31
2015-09-26T02:35:20.856Z,-0.37
2015-09-26T02:35:33.247Z,-0.34
2015-09-26T02:35:45.638Z,-0.33
2015-09-26T02:35:58.044Z,-0.34
2015-09-26T02:36:10.450Z,-0.41
2015-09-26T02:36:22.858Z,-0.4
2015-09-26T02:36:35.249Z,-0.28
2015-09-26T02:36:47.499Z,-0.34
2015-09-26T02:36:59.905Z,-0.34
2015-09-26T02:37:12.327Z,-0.31
2015-09-26T02:37:24.752Z,-0.41
2015-09-26T02:37:37.174Z,-0.34
2015-09-26T02:37:49.565Z,-0.36
2015-09-26T02:38:01.955Z,-0.43
2015-09-26T02:38:13.643Z,-0.37
2015-09-26T02:38:26.052Z,-0.41
2015-09-26T02:38:38.443Z,-0.38
2015-09-26T02:38:50.849Z,-0.34
2015-09-26T02:39:03.255Z,-0.46
2015-09-26T02:39:15.661Z,-0.45
2015-09-26T02:39:28.086Z,-0.46
2015-09-26T02:39:40.524Z,-0.48
2015-09-26T02:39:52.946Z,-0.4
2015-09-26T02:40:05.336Z,-0.48